In Rescue
 
Open Full Screen Window  High Contrast Mode
July 13, 2020 11:00 PM EDT
Weather Information
Wind Direction
  ---
Wind Speed
  00 kt (0 mph)
Wind Gust
  00 kt (0 mph)
Altimeter
29.99 in
Visibility
10 SM
Temperature
18° C
64° F
Dewpoint
14° C
57° F
Humidity
78%
1hr Rain Fall
00.00 in.
24hr Rain Fall
00.00 in.
Sky Condition
Clear
VFR

METAR KMOP 140300Z AUTO 00000KT 10SM CLR 18/14 A2999 RMK AO2 T01790137

FAA Disclaimer: The data displayed is for advisory purposes only and is not to be used for flight planning or operations.